Angola, Kansas
Current Conditions -  °F | °C
As of 9:52 PM on Wednesday 22 Oct 2014 (Local Time) from KCFV Reporting Station
Clear Clear  
Wind Chill: 19°   Ceiling: Unl
Heat Index: 19°   Visibility: 10mi
Dew Point: 14°   Wind: 10mph
Humidity: 73%   Direction: 160°SSE
Pressure: 30.1"   Gusts: NA
Location:  37.067°N, 95.5817°W
Report Text: KCFV 230252Z AUTO 16009KT 10SM CLR 19/14 A3010 RMK AO2 SLP190 T01890139 51005
Loading
Personal Weather Stations






























Interactive Weather Map
Tropical Storm Tracking
New forecast layout! Learn more

10-Day Weather Forecast

Advertisements
Track Severe Weather on mobile